createdAt,value
2024-03-22T00:00:36.637Z,607.00
2024-03-22T00:01:36.636Z,608.00
2024-03-22T00:02:36.634Z,608.00
2024-03-22T00:03:36.644Z,609.00
2024-03-22T00:04:36.642Z,609.00
2024-03-22T00:05:36.699Z,609.00
2024-03-22T00:06:36.631Z,606.00
2024-03-22T00:07:36.676Z,606.00
2024-03-22T00:08:36.629Z,605.00
2024-03-22T00:09:36.625Z,605.00
2024-03-22T00:10:36.615Z,606.00
2024-03-22T00:11:36.625Z,606.00
2024-03-22T00:12:36.592Z,608.00
2024-03-22T00:13:36.605Z,609.00
2024-03-22T00:14:37.026Z,605.00
2024-03-22T00:15:36.589Z,605.00
2024-03-22T00:16:36.600Z,607.00
2024-03-22T00:17:36.586Z,604.00
2024-03-22T00:18:36.571Z,601.00
2024-03-22T00:19:36.585Z,602.00
2024-03-22T00:20:36.658Z,603.00
2024-03-22T00:21:36.708Z,605.00
2024-03-22T00:22:36.765Z,606.00
2024-03-22T00:23:36.887Z,607.00
2024-03-22T00:24:36.886Z,607.00
2024-03-22T00:25:36.953Z,606.00
2024-03-22T00:26:37.054Z,608.00
2024-03-22T00:27:37.090Z,608.00
2024-03-22T00:28:37.146Z,605.00
2024-03-22T00:29:37.248Z,607.00
2024-03-22T00:30:39.932Z,608.00
2024-03-22T00:31:37.283Z,608.00
2024-03-22T00:32:37.323Z,609.00
2024-03-22T00:33:37.274Z,608.00
2024-03-22T00:34:37.276Z,609.00
2024-03-22T00:35:37.310Z,609.00
2024-03-22T00:36:37.246Z,611.00
2024-03-22T00:37:37.252Z,610.00
2024-03-22T00:38:37.246Z,608.00
2024-03-22T00:39:37.231Z,604.00
2024-03-22T00:40:37.212Z,601.00
2024-03-22T00:41:37.217Z,603.00
2024-03-22T00:42:37.220Z,603.00
2024-03-22T00:43:37.218Z,603.00
2024-03-22T00:44:37.243Z,603.00
2024-03-22T00:45:37.227Z,604.00
2024-03-22T00:46:37.344Z,603.00
2024-03-22T00:47:37.244Z,601.00
2024-03-22T00:48:37.212Z,600.00
2024-03-22T00:49:37.231Z,601.00
2024-03-22T00:50:37.267Z,602.00
2024-03-22T00:51:37.219Z,602.00
2024-03-22T00:52:37.248Z,599.00
2024-03-22T00:53:37.345Z,597.00
2024-03-22T00:54:37.379Z,598.00
2024-03-22T00:55:37.452Z,597.00
2024-03-22T00:56:37.529Z,597.00
2024-03-22T00:57:37.582Z,597.00
2024-03-22T00:58:37.652Z,597.00
2024-03-22T00:59:37.760Z,597.00
2024-03-22T01:00:37.799Z,596.00
2024-03-22T01:01:37.863Z,597.00
2024-03-22T01:02:37.928Z,596.00
2024-03-22T01:03:38.000Z,595.00
2024-03-22T01:04:38.051Z,594.00
2024-03-22T01:05:38.125Z,594.00
2024-03-22T01:06:38.192Z,593.00
2024-03-22T01:07:38.268Z,594.00
2024-03-22T01:08:38.362Z,596.00
2024-03-22T01:09:38.392Z,598.00
2024-03-22T01:10:38.463Z,597.00
2024-03-22T01:11:38.531Z,599.00
2024-03-22T01:12:38.604Z,600.00
2024-03-22T01:13:38.646Z,601.00
2024-03-22T01:14:38.725Z,602.00
2024-03-22T01:15:38.790Z,598.00
2024-03-22T01:16:38.848Z,602.00
2024-03-22T01:17:38.924Z,602.00
2024-03-22T01:18:38.951Z,602.00
2024-03-22T01:19:38.960Z,599.00
2024-03-22T01:20:38.970Z,598.00
2024-03-22T01:21:38.954Z,598.00
2024-03-22T01:22:38.944Z,597.00
2024-03-22T01:23:38.981Z,598.00
2024-03-22T01:24:38.956Z,601.00
2024-03-22T01:25:38.953Z,601.00
2024-03-22T01:26:38.980Z,601.00
2024-03-22T01:27:39.022Z,603.00
2024-03-22T01:28:39.071Z,602.00
2024-03-22T01:29:39.150Z,602.00
2024-03-22T01:30:39.182Z,600.00
2024-03-22T01:31:39.240Z,602.00
2024-03-22T01:32:39.327Z,602.00
2024-03-22T01:33:39.382Z,603.00
2024-03-22T01:34:39.443Z,599.00
2024-03-22T01:35:39.525Z,597.00
2024-03-22T01:36:39.568Z,599.00
2024-03-22T01:37:39.612Z,598.00
2024-03-22T01:38:39.703Z,595.00
2024-03-22T01:39:39.742Z,594.00
2024-03-22T01:40:39.788Z,594.00
2024-03-22T01:41:39.863Z,597.00
2024-03-22T01:42:39.895Z,596.00
2024-03-22T01:43:39.966Z,597.00
2024-03-22T01:44:40.018Z,595.00
2024-03-22T01:45:40.067Z,595.00
2024-03-22T01:46:40.136Z,593.00
2024-03-22T01:47:40.199Z,595.00
2024-03-22T01:48:40.251Z,595.00
2024-03-22T01:49:40.245Z,591.00
2024-03-22T01:50:40.300Z,591.00
2024-03-22T01:51:40.234Z,590.00
2024-03-22T01:52:40.228Z,592.00
2024-03-22T01:53:40.236Z,592.00
2024-03-22T01:54:40.212Z,592.00
2024-03-22T01:55:40.208Z,592.00
2024-03-22T01:56:40.238Z,593.00
2024-03-22T01:57:40.267Z,596.00
2024-03-22T01:58:40.327Z,598.00
2024-03-22T01:59:40.397Z,596.00
2024-03-22T02:00:40.461Z,598.00
2024-03-22T02:01:40.531Z,601.00
2024-03-22T02:02:40.600Z,598.00
2024-03-22T02:03:40.642Z,597.00
2024-03-22T02:04:40.688Z,595.00
2024-03-22T02:05:40.812Z,594.00
2024-03-22T02:06:40.809Z,594.00
2024-03-22T02:07:40.844Z,597.00
2024-03-22T02:08:40.874Z,595.00
2024-03-22T02:09:40.932Z,596.00
2024-03-22T02:10:40.985Z,594.00
2024-03-22T02:11:41.077Z,594.00
2024-03-22T02:12:41.159Z,596.00
2024-03-22T02:13:41.256Z,595.00
2024-03-22T02:14:41.362Z,593.00
2024-03-22T02:15:41.471Z,592.00
2024-03-22T02:16:41.568Z,591.00
2024-03-22T02:17:41.631Z,591.00
2024-03-22T02:18:41.724Z,590.00
2024-03-22T02:19:41.822Z,593.00
2024-03-22T02:20:41.868Z,593.00
2024-03-22T02:21:41.951Z,596.00
2024-03-22T02:22:42.007Z,595.00
2024-03-22T02:23:42.099Z,597.00
2024-03-22T02:24:42.149Z,599.00
2024-03-22T02:25:42.247Z,598.00
2024-03-22T02:26:42.401Z,596.00
2024-03-22T02:27:42.369Z,595.00
2024-03-22T02:28:42.423Z,595.00
2024-03-22T02:29:42.485Z,596.00
2024-03-22T02:30:42.547Z,595.00
2024-03-22T02:31:42.636Z,593.00
2024-03-22T02:32:42.685Z,593.00
2024-03-22T02:33:42.773Z,592.00
2024-03-22T02:34:55.392Z,592.00
2024-03-22T02:35:43.822Z,594.00
2024-03-22T02:36:42.829Z,594.00
2024-03-22T02:37:42.820Z,591.00
2024-03-22T02:38:42.819Z,591.00
2024-03-22T02:39:42.820Z,590.00
2024-03-22T02:40:42.821Z,588.00
2024-03-22T02:41:42.815Z,588.00
2024-03-22T02:42:42.814Z,589.00
2024-03-22T02:43:42.858Z,590.00
2024-03-22T02:44:42.909Z,588.00
2024-03-22T02:45:42.982Z,589.00
2024-03-22T02:46:43.040Z,592.00
2024-03-22T02:47:43.141Z,591.00
2024-03-22T02:48:43.197Z,595.00
2024-03-22T02:49:43.223Z,595.00
2024-03-22T02:50:43.300Z,594.00
2024-03-22T02:51:43.340Z,594.00
2024-03-22T02:52:43.392Z,592.00
2024-03-22T02:53:43.464Z,591.00
2024-03-22T02:54:43.523Z,589.00
2024-03-22T02:55:43.563Z,588.00
2024-03-22T02:56:43.564Z,585.00
2024-03-22T02:57:43.578Z,583.00
2024-03-22T02:58:43.563Z,583.00
2024-03-22T02:59:43.567Z,580.00
2024-03-22T03:00:43.568Z,580.00
2024-03-22T03:01:43.563Z,581.00
2024-03-22T03:02:43.558Z,582.00
2024-03-22T03:03:43.574Z,582.00
2024-03-22T03:04:43.557Z,584.00
2024-03-22T03:05:43.565Z,587.00
2024-03-22T03:06:43.583Z,588.00
2024-03-22T03:07:43.623Z,588.00
2024-03-22T03:08:43.661Z,586.00
2024-03-22T03:09:43.764Z,584.00
2024-03-22T03:10:43.852Z,583.00
2024-03-22T03:11:43.955Z,582.00
2024-03-22T03:12:43.997Z,583.00
2024-03-22T03:13:44.060Z,584.00
2024-03-22T03:14:44.110Z,583.00
2024-03-22T03:15:44.159Z,583.00
2024-03-22T03:16:44.224Z,583.00
2024-03-22T03:17:44.280Z,584.00
2024-03-22T03:18:44.309Z,582.00
2024-03-22T03:19:44.360Z,583.00
2024-03-22T03:20:44.453Z,581.00
2024-03-22T03:21:44.501Z,580.00
2024-03-22T03:22:44.585Z,582.00
2024-03-22T03:23:44.648Z,581.00
2024-03-22T03:24:44.699Z,578.00
2024-03-22T03:25:44.789Z,580.00
2024-03-22T03:26:44.852Z,579.00
2024-03-22T03:27:44.931Z,579.00
2024-03-22T03:28:44.992Z,577.00
2024-03-22T03:29:45.035Z,579.00
2024-03-22T03:30:45.082Z,579.00
2024-03-22T03:31:45.155Z,581.00
2024-03-22T03:32:45.211Z,581.00
2024-03-22T03:33:45.291Z,579.00
2024-03-22T03:34:45.320Z,577.00
2024-03-22T03:35:45.371Z,575.00
2024-03-22T03:36:45.417Z,574.00
2024-03-22T03:37:45.438Z,576.00
2024-03-22T03:38:45.504Z,576.00
2024-03-22T03:39:45.522Z,576.00
2024-03-22T03:40:45.560Z,576.00
2024-03-22T03:41:45.583Z,579.00
2024-03-22T03:42:45.608Z,579.00
2024-03-22T03:43:45.699Z,578.00
2024-03-22T03:44:45.798Z,577.00
2024-03-22T03:45:45.904Z,579.00
2024-03-22T03:46:45.972Z,582.00
2024-03-22T03:47:46.015Z,583.00
2024-03-22T03:48:46.013Z,582.00
2024-03-22T03:49:46.004Z,583.00
2024-03-22T03:50:46.011Z,586.00
2024-03-22T03:51:46.032Z,586.00
2024-03-22T03:52:46.020Z,586.00
2024-03-22T03:53:46.016Z,583.00
2024-03-22T03:54:46.016Z,582.00
2024-03-22T03:55:46.014Z,584.00
2024-03-22T03:56:46.033Z,582.00
2024-03-22T03:57:46.015Z,580.00
2024-03-22T03:58:46.020Z,577.00
2024-03-22T03:59:46.006Z,576.00
2024-03-22T04:00:46.010Z,576.00
2024-03-22T04:01:46.014Z,576.00
2024-03-22T04:02:46.003Z,578.00
2024-03-22T04:03:46.013Z,578.00
2024-03-22T04:04:46.014Z,577.00
2024-03-22T04:05:45.994Z,577.00
2024-03-22T04:06:45.991Z,575.00
2024-03-22T04:07:45.988Z,578.00
2024-03-22T04:08:46.081Z,579.00
2024-03-22T04:09:46.113Z,578.00
2024-03-22T04:10:46.173Z,579.00
2024-03-22T04:11:46.182Z,577.00
2024-03-22T04:12:46.184Z,574.00
2024-03-22T04:13:46.199Z,573.00
2024-03-22T04:14:46.187Z,571.00
2024-03-22T04:15:46.257Z,567.00
2024-03-22T04:16:46.354Z,567.00
2024-03-22T04:17:46.443Z,567.00
2024-03-22T04:18:46.444Z,568.00
2024-03-22T04:19:46.449Z,568.00
2024-03-22T04:20:46.460Z,568.00
2024-03-22T04:21:46.487Z,568.00
2024-03-22T04:22:46.503Z,569.00
2024-03-22T04:23:46.527Z,571.00
2024-03-22T04:24:46.590Z,569.00
2024-03-22T04:25:46.767Z,570.00
2024-03-22T04:26:46.811Z,574.00
2024-03-22T04:27:46.872Z,573.00
2024-03-22T04:28:54.361Z,584.00
2024-03-22T04:29:54.377Z,583.00
2024-03-22T04:30:54.404Z,583.00
2024-03-22T04:32:01.703Z,592.00
2024-03-22T04:33:01.632Z,588.00
2024-03-22T04:34:01.640Z,585.00
2024-03-22T04:35:01.653Z,584.00
2024-03-22T04:36:01.652Z,581.00
2024-03-22T04:37:01.673Z,579.00
2024-03-22T04:38:01.675Z,578.00
2024-03-22T04:39:01.698Z,583.00
2024-03-22T04:40:01.708Z,582.00
2024-03-22T04:41:01.698Z,582.00
2024-03-22T04:42:01.714Z,583.00
2024-03-22T04:43:01.721Z,581.00
2024-03-22T04:44:01.752Z,578.00
2024-03-22T04:45:01.733Z,578.00
2024-03-22T04:46:01.738Z,577.00
2024-03-22T04:47:01.754Z,578.00
2024-03-22T04:48:01.762Z,580.00
2024-03-22T04:49:01.786Z,582.00
2024-03-22T04:50:01.786Z,578.00
2024-03-22T04:51:01.816Z,575.00
2024-03-22T04:52:01.828Z,573.00
2024-03-22T04:53:01.864Z,571.00
2024-03-22T04:54:01.845Z,573.00
2024-03-22T04:55:01.863Z,575.00
2024-03-22T04:56:01.892Z,574.00
2024-03-22T04:57:01.900Z,573.00
2024-03-22T04:58:01.903Z,572.00
2024-03-22T04:59:01.919Z,573.00
2024-03-22T05:00:01.937Z,575.00
2024-03-22T05:01:01.938Z,577.00
2024-03-22T05:02:01.965Z,578.00
2024-03-22T05:03:01.983Z,579.00
2024-03-22T05:04:01.999Z,579.00
2024-03-22T05:05:02.005Z,578.00
2024-03-22T05:06:02.020Z,579.00
2024-03-22T05:07:02.021Z,581.00
2024-03-22T05:08:02.024Z,580.00
2024-03-22T05:09:02.061Z,579.00
2024-03-22T05:10:02.053Z,578.00
2024-03-22T05:11:02.071Z,577.00
2024-03-22T05:12:02.085Z,579.00
2024-03-22T05:13:02.096Z,580.00
2024-03-22T05:14:02.119Z,583.00
2024-03-22T05:15:02.135Z,581.00
2024-03-22T05:16:02.136Z,581.00
2024-03-22T05:17:02.172Z,579.00
2024-03-22T05:18:02.173Z,578.00
2024-03-22T05:19:02.195Z,576.00
2024-03-22T05:20:02.219Z,575.00
2024-03-22T05:21:02.239Z,577.00
2024-03-22T05:22:02.314Z,577.00
2024-03-22T05:23:02.402Z,578.00
2024-03-22T05:24:02.486Z,578.00
2024-03-22T05:25:02.561Z,579.00
2024-03-22T05:26:02.655Z,578.00
2024-03-22T05:27:02.735Z,579.00
2024-03-22T05:28:02.823Z,579.00
2024-03-22T05:29:02.883Z,581.00
2024-03-22T05:30:02.960Z,579.00
2024-03-22T05:31:03.055Z,576.00
2024-03-22T05:32:03.134Z,576.00
2024-03-22T05:33:03.403Z,573.00
2024-03-22T05:34:03.295Z,580.00
2024-03-22T05:35:03.389Z,579.00
2024-03-22T05:36:03.460Z,577.00
2024-03-22T05:37:03.633Z,576.00
2024-03-22T05:38:03.629Z,572.00
2024-03-22T05:39:03.706Z,569.00
2024-03-22T05:40:03.796Z,572.00
2024-03-22T05:41:03.855Z,573.00
2024-03-22T05:42:03.954Z,573.00
2024-03-22T05:43:04.011Z,573.00
2024-03-22T05:44:04.086Z,572.00
2024-03-22T05:45:04.164Z,571.00
2024-03-22T05:46:04.265Z,569.00
2024-03-22T05:47:04.343Z,570.00
2024-03-22T05:48:04.421Z,572.00
2024-03-22T05:49:04.485Z,571.00
2024-03-22T05:50:04.584Z,570.00
2024-03-22T05:51:04.650Z,569.00
2024-03-22T05:52:04.723Z,570.00
2024-03-22T05:53:04.796Z,571.00
2024-03-22T05:54:04.872Z,572.00
2024-03-22T05:55:04.953Z,573.00
2024-03-22T05:56:05.039Z,574.00
2024-03-22T05:57:05.133Z,573.00
2024-03-22T05:58:05.201Z,573.00
2024-03-22T05:59:05.275Z,573.00
2024-03-22T06:00:05.367Z,574.00
2024-03-22T06:01:05.446Z,576.00
2024-03-22T06:02:05.531Z,577.00
2024-03-22T06:03:05.607Z,577.00
2024-03-22T06:04:05.694Z,576.00
2024-03-22T06:05:05.771Z,573.00
2024-03-22T06:06:05.867Z,570.00
2024-03-22T06:07:05.940Z,571.00
2024-03-22T06:08:06.042Z,571.00
2024-03-22T06:09:06.159Z,569.00
2024-03-22T06:10:06.223Z,570.00
2024-03-22T06:11:07.727Z,569.00
2024-03-22T06:12:06.248Z,568.00
2024-03-22T06:13:06.254Z,568.00
2024-03-22T06:14:06.263Z,569.00
2024-03-22T06:15:06.266Z,569.00
2024-03-22T06:16:06.278Z,570.00
2024-03-22T06:17:06.285Z,574.00
2024-03-22T06:18:06.297Z,575.00
2024-03-22T06:19:06.327Z,572.00
2024-03-22T06:20:06.340Z,574.00
2024-03-22T06:21:06.347Z,574.00
2024-03-22T06:23:06.366Z,571.00
2024-03-22T06:24:06.366Z,574.00
2024-03-22T06:25:06.383Z,572.00
2024-03-22T06:26:06.393Z,571.00
2024-03-22T06:27:06.427Z,570.00
2024-03-22T06:28:06.430Z,572.00
2024-03-22T06:29:06.498Z,573.00
2024-03-22T06:30:06.580Z,572.00
2024-03-22T06:31:06.635Z,575.00
2024-03-22T06:32:06.668Z,578.00
2024-03-22T06:33:06.662Z,583.00
2024-03-22T06:34:06.691Z,647.00
2024-03-22T06:35:06.756Z,648.00
2024-03-22T06:36:06.714Z,693.00
2024-03-22T06:37:06.724Z,762.00
2024-03-22T06:38:06.751Z,725.00
2024-03-22T06:39:06.728Z,733.00
2024-03-22T06:40:06.745Z,746.00
2024-03-22T06:41:06.753Z,780.00
2024-03-22T06:42:06.774Z,795.00
2024-03-22T06:43:06.783Z,801.00
2024-03-22T06:44:06.795Z,842.00
2024-03-22T06:45:06.806Z,849.00
2024-03-22T06:46:06.823Z,920.00
2024-03-22T06:47:06.818Z,913.00
2024-03-22T06:48:06.827Z,919.00
2024-03-22T06:49:06.835Z,924.00
2024-03-22T06:50:06.866Z,919.00
2024-03-22T06:51:06.923Z,1072.00
2024-03-22T06:52:06.872Z,1055.00
2024-03-22T06:53:06.871Z,1046.00
2024-03-22T06:54:06.905Z,1046.00
2024-03-22T06:55:06.962Z,1047.00
2024-03-22T06:56:06.906Z,1063.00
2024-03-22T06:57:06.939Z,1087.00
2024-03-22T06:58:06.935Z,1121.00
2024-03-22T06:59:06.944Z,1124.00
2024-03-22T07:00:06.946Z,1132.00
2024-03-22T07:01:06.950Z,1156.00
2024-03-22T07:02:06.956Z,1166.00
2024-03-22T07:03:06.989Z,1174.00
2024-03-22T07:04:06.984Z,1181.00
2024-03-22T07:05:06.991Z,1221.00
2024-03-22T07:06:06.990Z,1223.00
2024-03-22T07:07:07.027Z,1226.00
2024-03-22T07:08:06.997Z,1234.00
2024-03-22T07:09:07.020Z,1239.00
2024-03-22T07:10:07.036Z,1255.00
2024-03-22T07:11:07.030Z,1273.00
2024-03-22T07:12:07.033Z,1323.00
2024-03-22T07:13:07.046Z,1340.00
2024-03-22T07:14:07.066Z,1353.00
2024-03-22T07:15:07.124Z,1369.00
2024-03-22T07:16:07.139Z,1372.00
2024-03-22T07:17:07.214Z,1385.00
2024-03-22T07:18:07.227Z,1418.00
2024-03-22T07:19:07.260Z,1434.00
2024-03-22T07:20:07.308Z,1445.00
2024-03-22T07:21:07.328Z,1457.00
2024-03-22T07:22:07.791Z,1472.00
2024-03-22T07:23:07.422Z,1483.00
2024-03-22T07:24:07.427Z,1489.00
2024-03-22T07:25:07.436Z,1491.00
2024-03-22T07:26:09.197Z,1498.00
2024-03-22T07:27:07.502Z,1510.00
2024-03-22T07:28:07.487Z,1528.00
2024-03-22T07:29:07.500Z,1539.00
2024-03-22T07:30:07.498Z,1553.00
2024-03-22T07:31:07.534Z,1570.00
2024-03-22T07:32:07.479Z,1575.00
2024-03-22T07:33:07.476Z,1582.00
2024-03-22T07:34:07.492Z,1586.00
2024-03-22T07:35:07.483Z,1592.00
2024-03-22T07:36:07.479Z,1603.00
2024-03-22T07:38:07.510Z,1639.00
2024-03-22T07:39:07.489Z,1674.00
2024-03-22T07:40:07.504Z,1677.00
2024-03-22T07:41:07.494Z,1678.00
2024-03-22T07:42:08.820Z,1868.00
2024-03-22T07:43:07.511Z,1784.00
2024-03-22T07:44:07.563Z,1733.00
2024-03-22T07:45:07.540Z,1713.00
2024-03-22T07:46:07.548Z,1717.00
2024-03-22T07:47:07.830Z,1691.00
2024-03-22T07:48:07.541Z,1607.00
2024-03-22T07:49:07.553Z,1621.00
2024-03-22T07:50:07.804Z,1632.00
2024-03-22T07:51:07.537Z,1616.00
2024-03-22T07:52:07.529Z,1604.00
2024-03-22T07:53:07.532Z,1608.00
2024-03-22T07:54:07.549Z,1605.00
2024-03-22T07:55:07.589Z,1480.00
2024-03-22T07:56:07.537Z,1540.00
2024-03-22T07:57:07.541Z,1524.00
2024-03-22T07:58:07.521Z,1510.00
2024-03-22T07:59:07.518Z,1502.00
2024-03-22T08:00:07.520Z,1490.00
2024-03-22T08:01:07.546Z,1453.00
2024-03-22T08:02:07.529Z,1431.00
2024-03-22T08:03:07.523Z,1424.00
2024-03-22T08:04:07.618Z,1418.00
2024-03-22T08:05:07.531Z,1413.00
2024-03-22T08:06:07.521Z,1364.00
2024-03-22T08:07:07.541Z,1347.00
2024-03-22T08:08:07.519Z,1342.00
2024-03-22T08:09:07.522Z,1338.00
2024-03-22T08:10:07.540Z,1328.00
2024-03-22T08:11:07.563Z,1322.00
2024-03-22T08:12:07.656Z,1316.00
2024-03-22T08:13:07.550Z,1305.00
2024-03-22T08:14:07.614Z,1294.00
2024-03-22T08:15:07.533Z,1274.00
2024-03-22T08:16:07.582Z,1263.00
2024-03-22T08:17:07.573Z,1253.00
2024-03-22T08:18:07.548Z,1238.00
2024-03-22T08:19:07.561Z,1214.00
2024-03-22T08:20:07.544Z,1200.00
2024-03-22T08:21:07.548Z,1197.00
2024-03-22T08:22:08.309Z,1195.00
2024-03-22T08:23:07.565Z,1191.00
2024-03-22T08:24:07.605Z,1184.00
2024-03-22T08:25:07.574Z,1171.00
2024-03-22T08:26:07.593Z,1128.00
2024-03-22T08:27:07.556Z,1173.00
2024-03-22T08:28:11.709Z,1206.00
2024-03-22T08:29:08.600Z,1224.00
2024-03-22T08:30:07.565Z,1243.00
2024-03-22T08:31:07.583Z,1250.00
2024-03-22T08:32:07.573Z,1270.00
2024-03-22T08:33:07.581Z,1295.00
2024-03-22T08:34:07.586Z,1315.00
2024-03-22T08:35:07.618Z,1328.00
2024-03-22T08:36:07.569Z,1340.00
2024-03-22T08:37:07.589Z,1357.00
2024-03-22T08:38:07.705Z,1367.00
2024-03-22T08:39:07.665Z,1392.00
2024-03-22T08:40:07.657Z,1432.00
2024-03-22T08:41:07.623Z,1461.00
2024-03-22T08:42:07.623Z,1473.00
2024-03-22T08:43:07.625Z,1477.00
2024-03-22T08:44:07.578Z,1470.00
2024-03-22T08:45:07.582Z,1471.00
2024-03-22T08:46:07.561Z,1477.00
2024-03-22T08:47:07.578Z,1489.00
2024-03-22T08:48:07.563Z,1492.00
2024-03-22T08:49:07.573Z,1492.00
2024-03-22T08:50:07.584Z,1488.00
2024-03-22T08:51:07.564Z,1482.00
2024-03-22T08:52:07.569Z,1479.00
2024-03-22T08:53:07.550Z,1462.00
2024-03-22T08:54:07.565Z,1446.00
2024-03-22T08:55:07.600Z,1448.00
2024-03-22T08:56:07.553Z,1446.00
2024-03-22T08:57:07.615Z,1452.00
2024-03-22T08:58:07.611Z,1446.00
2024-03-22T08:59:07.633Z,1443.00
2024-03-22T09:00:07.671Z,1448.00
2024-03-22T09:01:07.712Z,1443.00
2024-03-22T09:02:07.719Z,1440.00
2024-03-22T09:03:07.714Z,1430.00
2024-03-22T09:04:07.699Z,1436.00
2024-03-22T09:05:07.727Z,1435.00
2024-03-22T09:06:09.010Z,1442.00
2024-03-22T09:07:07.706Z,1454.00
2024-03-22T09:08:07.716Z,1451.00
2024-03-22T09:09:07.674Z,1368.00
2024-03-22T09:10:07.674Z,1083.00
2024-03-22T09:11:07.676Z,1036.00
2024-03-22T09:12:07.721Z,1024.00
2024-03-22T09:13:07.769Z,833.00
2024-03-22T09:14:07.789Z,862.00
2024-03-22T09:15:07.794Z,751.00
2024-03-22T09:16:07.806Z,786.00
2024-03-22T09:17:07.824Z,768.00
2024-03-22T09:18:07.813Z,735.00
2024-03-22T09:19:10.239Z,762.00
2024-03-22T09:20:07.880Z,840.00
2024-03-22T09:21:07.814Z,889.00
2024-03-22T09:22:07.831Z,934.00
2024-03-22T09:23:07.855Z,963.00
2024-03-22T09:24:07.874Z,986.00
2024-03-22T09:25:07.889Z,1019.00
2024-03-22T09:26:07.842Z,1037.00
2024-03-22T09:27:07.868Z,1050.00
2024-03-22T09:28:07.851Z,1066.00
2024-03-22T09:29:07.904Z,1084.00
2024-03-22T09:30:07.841Z,1111.00
2024-03-22T09:31:07.839Z,1109.00
2024-03-22T09:32:07.868Z,1106.00
2024-03-22T09:33:07.919Z,1105.00
2024-03-22T09:34:07.826Z,1110.00
2024-03-22T09:35:07.816Z,1115.00
2024-03-22T09:36:07.886Z,1125.00
2024-03-22T09:37:07.900Z,1138.00
2024-03-22T09:38:07.890Z,1146.00
2024-03-22T09:39:07.812Z,1142.00
2024-03-22T09:40:07.811Z,1123.00
2024-03-22T09:41:08.118Z,1133.00
2024-03-22T09:42:07.822Z,1181.00
2024-03-22T09:43:07.863Z,1179.00
2024-03-22T09:44:07.842Z,1179.00
2024-03-22T09:45:07.889Z,1188.00
2024-03-22T09:46:07.966Z,1200.00
2024-03-22T09:47:08.003Z,1212.00
2024-03-22T09:48:08.078Z,1224.00
2024-03-22T09:49:08.130Z,1242.00
2024-03-22T09:50:08.197Z,1265.00
2024-03-22T09:51:08.236Z,1254.00
2024-03-22T09:52:08.302Z,1242.00
2024-03-22T09:53:08.381Z,1232.00
2024-03-22T09:54:08.453Z,1227.00
2024-03-22T09:55:08.473Z,1224.00
2024-03-22T09:56:08.542Z,1220.00
2024-03-22T09:57:08.545Z,1216.00
2024-03-22T09:58:08.550Z,1211.00
2024-03-22T09:59:08.611Z,1204.00
2024-03-22T10:00:08.638Z,1206.00
2024-03-22T10:01:08.650Z,1207.00
2024-03-22T10:02:08.678Z,1202.00
2024-03-22T10:03:08.711Z,1194.00
2024-03-22T10:04:08.722Z,1183.00
2024-03-22T10:05:08.712Z,1178.00
2024-03-22T10:06:08.733Z,1176.00
2024-03-22T10:07:08.737Z,1173.00
2024-03-22T10:08:08.735Z,1175.00
2024-03-22T10:09:08.763Z,1173.00
2024-03-22T10:10:09.295Z,1171.00
2024-03-22T10:11:08.778Z,1168.00
2024-03-22T10:12:08.805Z,1160.00
2024-03-22T10:13:08.798Z,1151.00
2024-03-22T10:14:15.632Z,1149.00
2024-03-22T10:15:11.043Z,1145.00
2024-03-22T10:16:08.801Z,1140.00
2024-03-22T10:17:08.810Z,1132.00
2024-03-22T10:18:08.804Z,1122.00
2024-03-22T10:19:08.809Z,1117.00
2024-03-22T10:20:08.807Z,1116.00
2024-03-22T10:21:08.813Z,1111.00
2024-03-22T10:22:08.789Z,1109.00
2024-03-22T10:23:08.835Z,1105.00
2024-03-22T10:24:08.818Z,1102.00
2024-03-22T10:25:08.797Z,1100.00
2024-03-22T10:26:08.789Z,1096.00
2024-03-22T10:27:08.819Z,1092.00
2024-03-22T10:28:10.650Z,1090.00
2024-03-22T10:29:08.846Z,1086.00
2024-03-22T10:30:08.964Z,1083.00
2024-03-22T10:31:08.953Z,1079.00
2024-03-22T10:32:09.040Z,1070.00
2024-03-22T10:33:08.959Z,1064.00
2024-03-22T10:34:08.949Z,1062.00
2024-03-22T10:35:08.962Z,1056.00
2024-03-22T10:36:08.980Z,1047.00
2024-03-22T10:37:09.075Z,1041.00
2024-03-22T10:38:09.065Z,1040.00
2024-03-22T10:39:09.010Z,1038.00
2024-03-22T10:40:09.009Z,1035.00
2024-03-22T10:41:09.023Z,1033.00
2024-03-22T10:42:09.096Z,1032.00
2024-03-22T10:43:09.069Z,1027.00
2024-03-22T10:44:09.119Z,1021.00
2024-03-22T10:45:09.115Z,1007.00
2024-03-22T10:46:09.038Z,1007.00
2024-03-22T10:47:09.031Z,1000.00
2024-03-22T10:48:09.214Z,996.00
2024-03-22T10:49:09.165Z,990.00
2024-03-22T10:50:09.127Z,985.00
2024-03-22T10:51:09.066Z,989.00
2024-03-22T10:52:09.077Z,988.00
2024-03-22T10:53:09.069Z,989.00
2024-03-22T10:54:09.062Z,984.00
2024-03-22T10:55:11.019Z,979.00
2024-03-22T10:56:09.167Z,974.00
2024-03-22T10:57:09.066Z,968.00
2024-03-22T10:58:09.063Z,963.00
2024-03-22T10:59:09.083Z,961.00
2024-03-22T11:00:09.077Z,958.00
2024-03-22T11:01:09.092Z,955.00
2024-03-22T11:02:09.125Z,949.00
2024-03-22T11:03:09.101Z,945.00
2024-03-22T11:04:09.104Z,945.00
2024-03-22T11:05:09.332Z,942.00
2024-03-22T11:06:09.149Z,941.00
2024-03-22T11:07:09.229Z,939.00
2024-03-22T11:08:09.139Z,935.00
2024-03-22T11:09:09.178Z,933.00
2024-03-22T11:10:09.159Z,929.00
2024-03-22T11:11:09.146Z,926.00
2024-03-22T11:12:09.154Z,923.00
2024-03-22T11:13:09.154Z,921.00
2024-03-22T11:14:09.214Z,918.00
2024-03-22T11:15:09.202Z,916.00
2024-03-22T11:16:09.163Z,912.00
2024-03-22T11:17:09.365Z,908.00
2024-03-22T11:18:09.195Z,909.00
2024-03-22T11:19:09.294Z,909.00
2024-03-22T11:20:09.155Z,906.00
2024-03-22T11:21:09.171Z,901.00
2024-03-22T11:22:09.165Z,898.00
2024-03-22T11:23:09.218Z,898.00
2024-03-22T11:24:09.174Z,910.00
2024-03-22T11:25:09.164Z,913.00
2024-03-22T11:26:09.166Z,907.00
2024-03-22T11:27:09.181Z,903.00
2024-03-22T11:28:10.652Z,903.00
2024-03-22T11:29:09.163Z,898.00
2024-03-22T11:30:09.173Z,894.00
2024-03-22T11:31:09.154Z,891.00
2024-03-22T11:32:09.159Z,890.00
2024-03-22T11:33:09.168Z,887.00
2024-03-22T11:34:09.183Z,889.00
2024-03-22T11:35:09.230Z,885.00
2024-03-22T11:36:09.161Z,890.00
2024-03-22T11:37:09.161Z,891.00
2024-03-22T11:38:09.170Z,893.00
2024-03-22T11:39:09.152Z,894.00
2024-03-22T11:40:09.164Z,895.00
2024-03-22T11:41:09.160Z,913.00
2024-03-22T11:42:09.236Z,941.00
2024-03-22T11:43:09.173Z,954.00
2024-03-22T11:44:09.143Z,1066.00
2024-03-22T11:45:09.152Z,1072.00
2024-03-22T11:46:09.144Z,1070.00
2024-03-22T11:47:09.155Z,941.00
2024-03-22T11:48:09.144Z,934.00
2024-03-22T11:49:09.151Z,937.00
2024-03-22T11:50:09.147Z,960.00
2024-03-22T11:51:09.161Z,948.00
2024-03-22T11:52:09.200Z,924.00
2024-03-22T11:53:09.152Z,909.00
2024-03-22T11:54:09.167Z,913.00
2024-03-22T11:55:09.197Z,906.00
2024-03-22T11:56:09.155Z,914.00
2024-03-22T11:57:09.163Z,919.00
2024-03-22T11:58:09.146Z,906.00
2024-03-22T11:59:09.239Z,891.00
2024-03-22T12:00:18.736Z,886.00
2024-03-22T12:01:27.722Z,896.00
2024-03-22T12:02:10.193Z,901.00
2024-03-22T12:03:09.193Z,901.00
2024-03-22T12:04:09.222Z,913.00
2024-03-22T12:05:09.339Z,923.00
2024-03-22T12:06:09.183Z,942.00
2024-03-22T12:07:09.151Z,940.00
2024-03-22T12:08:09.143Z,932.00
2024-03-22T12:09:09.141Z,938.00
2024-03-22T12:10:09.130Z,924.00
2024-03-22T12:11:09.182Z,910.00
2024-03-22T12:12:09.174Z,1056.00
2024-03-22T12:13:09.150Z,1093.00
2024-03-22T12:14:09.138Z,1101.00
2024-03-22T12:15:09.137Z,1112.00
2024-03-22T12:16:09.144Z,1126.00
2024-03-22T12:17:09.157Z,1137.00
2024-03-22T12:18:09.169Z,1046.00
2024-03-22T12:19:09.155Z,1150.00
2024-03-22T12:20:09.137Z,1168.00
2024-03-22T12:21:09.177Z,1167.00
2024-03-22T12:22:09.171Z,1163.00
2024-03-22T12:23:09.205Z,1162.00
2024-03-22T12:24:09.199Z,1169.00